Whale Point, California Weather observations

Data are for observation ending at time listed.
 Day   Time    Ave.   Ave.  Ave.  Vector   Max.   Stn.    Total    Solar   Ave.  
  of    of     Air    Rel.  Wind   Wind    Wind   Baro.  Precip.   Rad.    Soil  
Year   Day     Temp.  Hum.  Speed  Dir.    Gust   Pres.                    Temp. 
2014   (PST)    F      %     mph   deg.    mph     mb.     in.     W/m2     F   
------------------------------------------------------------------------------
 241    0:00   57.1    93    1.6   100      3.5   993.2    0.00       0    77.0
 241    0:10   57.2    93    2.5   142      5.7   993.2    0.00       0    77.0
 241    0:20   57.6    92    2.8    67      5.9   993.2    0.00       0    76.9
 241    0:30   57.1    92    2.6    69      5.8   992.9    0.00       0    76.9
 241    0:40   57.0    92    0.8    84      2.9   992.9    0.00       0    76.8
 241    0:50   56.9    92    3.2    32      6.4   992.9    0.00       0    76.8
 241    1:00   56.8    92    2.0    65      4.7   992.6    0.00       0    76.7
 241    1:10   57.1    92    2.0    72      5.4   992.6    0.00       0    76.7
 241    1:20   57.0    92    1.2   176      4.2   992.6    0.00       0    76.6
 241    1:30   57.1    92    1.8   224      5.5   992.6    0.00       0    76.5
 241    1:40   56.9    93    1.6     1      5.3   992.6    0.00       0    76.5
 241    1:50   57.0    93    1.8    19      4.9   992.6    0.00       0    76.4
 241    2:00   56.4    93    3.4    64      7.4   992.6    0.00       0    76.4
 241    2:10   56.9    93    1.6   192      5.8   992.6    0.00       0    76.3
 241    2:20   56.8    93    1.1   275      3.9   992.2    0.00       0    76.2
 241    2:30   56.7    94    0.9   309      3.4   992.2    0.00       0    76.2
 241    2:40   56.6    94    2.5    61      5.3   992.2    0.00       0    76.1
 241    2:50   55.9    93    3.7    48      5.8   991.9    0.00       0    76.1
 241    3:00   55.6    93    2.4    14      3.7   991.9    0.00       0    76.0
 241    3:10   55.7    94    2.5    19      4.1   992.2    0.00       0    75.9
 241    3:20   55.9    94    1.5    40      3.1   992.2    0.00       0    75.9
 241    3:30   55.8    94    3.6    48      6.0   992.2    0.00       0    75.8
 241    3:40   55.7    94    1.2    55      4.3   992.2    0.00       0    75.8
 241    3:50   55.8    94    0.7    45      2.6   991.9    0.00       0    75.7
 241    4:00   55.7    94    2.0    38      3.1   991.9    0.00       0    75.7
 241    4:10   55.3    94    0.4    50      1.4   991.9    0.00       0    75.6
 241    4:20   55.2    94    2.5    14      4.3   991.9    0.00       0    75.5
 241    4:30   55.6    94    1.2   277      2.6   992.2    0.00       0    75.5
 241    4:40   55.9    95    0.8    17      3.9   992.2    0.00       0    75.4
 241    4:50   55.4    94    5.0    51      7.5   991.9    0.00       0    75.3
 241    5:00   55.1    95    1.8    44      3.7   991.9    0.00       0    75.3
 241    5:10   55.3    95    0.9   340      2.4   992.2    0.00       0    75.2
 241    5:20   55.6    95    2.2    21      3.9   992.2    0.00       0    75.1
 241    5:30   55.5    95    2.1    34      3.9   992.2    0.00       1    75.1
 241    5:40   54.8    95    3.6    34      7.1   992.2    0.00       3    75.0
 241    5:50   54.4    95    1.6    29      4.2   992.2    0.00       7    75.0
 241    6:00   54.3    95    0.6    38      1.5   991.9    0.00      11    74.9
 241    6:10   54.4    96    1.2   163      3.3   991.9    0.00      13    74.9
 241    6:20   54.8    96    2.6   191      6.1   992.2    0.00      11    74.8
 241    6:30   55.2    96    2.0   192      5.2   992.2    0.00      23    74.8
 241    6:40   55.3    96    4.2    10      8.3   991.9    0.00      40    74.7
 241    6:50   55.0    96    1.5   206      4.1   992.2    0.00      69    74.6
 241    7:00   55.4    96    1.8   242      4.7   992.6    0.00      87    74.6
 241    7:10   55.8    96    2.2   219      4.2   992.6    0.00     119    74.5
 241    7:20   55.7    96    3.6   140      7.3   992.6    0.00     157    74.4
 241    7:30   55.9    96    1.8   122      5.8   992.6    0.00     286    74.4
 241    7:40   56.7    96    2.2   212      4.0   992.6    0.00     346    74.3
 241    7:50   56.8    95    3.2   219      5.8   992.2    0.00     246    74.2
 241    8:00   56.8    95    3.2   232      6.4   992.6    0.00     194    74.2
 241    8:10   57.0    95    1.6   226      3.7   992.6    0.00     252    74.2
 241    8:20   57.9    94    1.7   216      3.7   992.2    0.00     515    74.1
 241    8:30   58.5    93    2.5   198      4.7   992.2    0.00     613    74.0
 241    8:40   58.2    91    4.5   208      6.6   992.2    0.00     390    74.0
 241    8:50   58.4    91    2.9   214      5.3   992.2    0.00     604    74.0
 241    9:00   59.3    89    2.1   215      6.2   992.2    0.00     689    74.0
 241    9:10   59.6    87    5.1   196      9.7   992.2    0.00     757    73.9
 241    9:20   58.0    90    8.0   213     11.7   992.6    0.00     395    73.9
 241    9:30   57.9    92    4.0   216      7.6   992.9    0.00     416    74.0
 241    9:40   59.2    90    1.7   244      4.4   992.6    0.00     753    73.9
 241    9:50   60.6    85    3.5   204      6.4   992.2    0.00     840    73.9
 241   10:00   59.8    87    5.0   207      8.1   992.2    0.00     771    73.9
 241   10:10   58.7    89    6.4   214      9.3   992.6    0.00     465    73.9
 241   10:20   59.5    89    3.5   209      6.6   992.6    0.00     794    73.9
 241   10:30   60.0    87    5.5   217      8.1   992.6    0.00     830    73.9
 241   10:40   60.3    87    4.3   221      7.5   992.6    0.00     885    73.9
 241   10:50   61.2    85    4.4   215      7.2   992.2    0.00     994    73.9
 241   11:00   61.4    83    6.0   210     11.0   992.6    0.00     681    73.9
 241   11:10   60.8    85    4.9   208      8.5   992.6    0.00     754    73.9
 241   11:20   61.6    84    4.4   223      6.8   992.6    0.00     912    73.9
 241   11:30   61.4    84    5.1   219      8.1   992.2    0.00     902    74.0
 241   11:40   61.4    83    5.5   221      7.5   992.6    0.00     439    74.0
 241   11:50   60.2    87    3.7   228      6.4   992.6    0.00     518    74.0
 241   12:00   61.8    84    3.3   208      6.3   992.2    0.00     967    74.1
 241   12:10   62.4    81    6.1   220      9.1   992.2    0.00     673    74.1
 241   12:20   61.0    85    4.9   218      6.9   992.6    0.00     383    74.2
 241   12:30   60.5    86    4.5   226      7.2   992.6    0.00     478    74.2
 241   12:40   60.7    86    4.9   223      6.9   992.6    0.00     629    74.3
 241   12:50   61.5    84    5.3   221      7.7   992.6    0.00     656    74.4
 241   13:00   61.9    84    4.2   222      6.2   992.6    0.00     788    74.4
 241   13:10   63.2    80    5.8   228      9.1   992.6    0.00     921    74.5
 241   13:20   63.1    80    6.0   221     11.8   992.2    0.00     972    74.6
 241   13:30   63.7    79    5.4   224      9.8   992.2    0.00     848    74.7
 241   13:40   64.1    78    6.0   238     10.3   992.2    0.00     901    74.8
 241   13:50   63.4    80    5.2   255     12.6   992.2    0.00     739    74.9
 241   14:00   62.5    82    3.9   274      8.8   992.2    0.00     498    75.0
 241   14:10   62.7    82    4.3   245      8.1   992.2    0.00     662    75.1
 241   14:20   64.3    78    4.6   232      9.1   992.2    0.00     902    75.2
 241   14:30   64.6    77    6.7   241     12.0   991.9    0.00     844    75.3
 241   14:40   64.8    78    7.2   265     12.3   991.9    0.00     837    75.4
 241   14:50   65.8    76    5.8   272     10.7   991.9    0.00     736    75.5
 241   15:00   65.8    77    5.8   273     13.4   991.9    0.00     734    75.6
 241   15:10   66.9    74    4.4   263      9.3   991.5    0.00     610    75.8
 241   15:20   65.5    77    6.8   251     12.9   991.5    0.00     660    75.9
 241   15:30   64.7    80    5.4   245     10.0   991.5    0.00     594    76.0
 241   15:40   65.9    76    5.5   225      8.6   991.5    0.00     598    76.1
 241   15:50   66.2    76    5.6   233      9.1   991.2    0.00     565    76.2
 241   16:00   66.5    75    5.1   240      8.6   991.2    0.00     534    76.4
 241   16:10   66.1    76    5.5   233      8.8   991.2    0.00     498    76.5
 241   16:20   65.9    76    5.6   239      8.9   991.2    0.00     460    76.6
 241   16:30   66.0    76    4.4   247      7.9   991.2    0.00     426    76.8
 241   16:40   65.5    77    5.4   229      8.9   991.2    0.00     392    76.9
 241   16:50   65.2    78    5.0   228      7.4   990.9    0.00     344    77.0
 241   17:00   64.7    79    4.1   224      7.3   990.9    0.00     273    77.1
 241   17:10   65.2    78    4.2   203      6.9   990.5    0.00     244    77.3
 241   17:20   63.7    81    5.5   218      8.2   990.5    0.00     164    77.4
 241   17:30   61.6    87    3.6   241      7.1   990.5    0.00     150    77.5
 241   17:40   62.0    86    2.3   285      4.4   990.2    0.00      66    77.6
 241   17:50   62.3    85    3.1   218      7.2   990.2    0.00     142    77.7
 241   18:00   63.1    83    2.9   210      6.6   990.2    0.00     114    77.8
 241   18:10   62.3    84    1.5   292      5.5   990.2    0.00      30    77.9
 241   18:20   61.8    85    1.5   245      3.9   989.8    0.00      16    78.0
 241   18:30   61.5    86    1.6   194      5.6   989.8    0.00       7    78.1
 241   18:40   61.1    87    0.6   359      1.8   989.8    0.00       3    78.1
 241   18:50   60.7    87    1.2   196      2.6   989.8    0.00       1    78.2
 241   19:00   60.5    88    0.8   202      2.5   989.8    0.00       0    78.2
 241   19:10   60.2    88    1.5   178      2.9   990.2    0.00       0    78.3
 241   19:20   59.9    89    1.2   176      2.3   990.2    0.00       0    78.3
 241   19:30   60.0    90    2.0    26      4.7   990.2    0.00       0    78.3
 241   19:40   60.5    89    2.2   170      5.0   990.2    0.00       0    78.3
 241   19:50   60.2    88    2.0   182      6.3   990.2    0.00       0    78.3
 241   20:00   59.9    89    1.1   162      2.3   990.2    0.00       0    78.3
 241   20:10   59.4    90    1.7   213      3.8   990.5    0.00       0    78.3
 241   20:20   59.1    91    1.5   356      3.3   990.5    0.00       0    78.3
 241   20:30   59.5    92    1.6   171      3.8   990.5    0.00       0    78.3

Return to Whale Point graphs page.


Western Regional Climate Center,wrcc@dri.edu